Welsford, Canada
Current Conditions -  °F | °C
As of 7:00 AM on Friday 24 Oct 2014 (Local Time) from CYSJ Reporting Station
Light Rain Light Rain  
Wind Chill: 43°   Ceiling: 800
Heat Index: 48°   Visibility: 3mi
Dew Point: 48°   Wind: 12mph
Humidity: 100%   Direction: 20°NNE
Pressure: 29.62"   Gusts: NA
Location:  45.45°N, 66.35°W
Report Text: CYSJ 241000Z 02010KT 3SM -RA BR SCT004 OVC008 09/09 A2962 RMK SF4SC4 SLP034
Loading
Personal Weather Stations






























Interactive Weather Map
Tropical Storm Tracking
New forecast layout! Learn more

10-Day Weather Forecast

Advertisements
Track Severe Weather on mobile